Rossville, IL (60963)

4:02 PM CDT on August 30, 2015 (GMT -0500)
Weinard Farms | | Change Station
CLOSE
Current Station
Personal Weather Station
Location: Rossville, IL
Elevation: 692 ft
Nearby Weather Stations

Elev 692 ft 40.39 °N, 87.57 °W | Updated 8 seconds ago

Partly Cloudy
Partly Cloudy
83.8 °F
Feels Like 90 °F
N
3.0
Wind Variable Wind from SW
Gusts 3.0 mph

Today
High -- | Low -- °F
--% Chance of Precip.
Yesterday
High -- | Low -- °F
Precip. -- in
6:15 AM 7:26 PM
Full, 98% visible
Pressure 30.00 in
Visibility 7.0 miles
Clouds Scattered Clouds 3400 ft
Scattered Clouds 4100 ft
Scattered Clouds 5500 ft
Heat Index 90 °F
Dew Point 73 °F
Humidity 69%
Rainfall 0.01 in
Snow Depth Not available.
UV 4 out of 12
Pollen 10.20 out of 12
Air Quality Not available.
Flu Activity Not available.
METAR KDNV 302055Z AUTO 26005KT 7SM SCT034 SCT041 SCT055 29/21 A3000 RMK AO2 T02890212
Pressure 30.00 in
Visibility 7.0 miles
Clouds Scattered Clouds 3400 ft
Scattered Clouds 4100 ft
Scattered Clouds 5500 ft
Heat Index 90 °F
Dew Point 73 °F
Humidity 69%
Rainfall 0.01 in
Snow Depth Not available.
UV 4 out of 12
Pollen 10.20 out of 12
Air Quality Not available.
Flu Activity Not available.
METAR KDNV 302055Z AUTO 26005KT 7SM SCT034 SCT041 SCT055 29/21 A3000 RMK AO2 T02890212

10-Day Weather Forecast

×

Almanac

Astronomy

Aug. 30, 2015 Rise Set
Actual Time
Civil Twilight
Nautical Twilight
Astronomical Twilight
Moon
Length of Visible Light
Length of Day
Tomorrow will be .
, % of the Moon is Illuminated

Today's Extremes

State Highs State Lows

Community

WunderPhotos

Upload Photos

1,851,060 photos uploaded!

WunderBlogs® & News

Nearby

Air Quality

  Air Quality AQ Index Pollutant
Not available.

Snow Depth

Station Depth Elevation

Earthquake Activity

City Distance Mag. Time & Date
Minimum magnitude displayed is 2.5.

Coastal Water Temperatures

Place Temperature

Stations

Nearby Weather Stations

Station Location Temp. Windchill Dew Point Humidity Wind Precip. Elev Updated Type